sensor_id;sensor_type;location;lat;lon;timestamp;temperature;humidity
38582;DHT22;24349;53.720;10.014;2023-03-01T00:01:58;0.50;99.90
38582;DHT22;24349;53.720;10.014;2023-03-01T00:04:24;0.40;96.40
38582;DHT22;24349;53.720;10.014;2023-03-01T00:06:50;0.30;99.90
38582;DHT22;24349;53.720;10.014;2023-03-01T00:09:16;0.20;99.90
38582;DHT22;24349;53.720;10.014;2023-03-01T00:11:43;0.10;99.90
38582;DHT22;24349;53.720;10.014;2023-03-01T00:14:08;0.10;99.90
38582;DHT22;24349;53.720;10.014;2023-03-01T00:16:38;0.20;99.90
38582;DHT22;24349;53.720;10.014;2023-03-01T00:19:08;0.20;99.90
38582;DHT22;24349;53.720;10.014;2023-03-01T00:21:35;0.30;99.90
38582;DHT22;24349;53.720;10.014;2023-03-01T00:24:01;0.30;99.90
38582;DHT22;24349;53.720;10.014;2023-03-01T00:26:27;0.30;99.90
38582;DHT22;24349;53.720;10.014;2023-03-01T00:28:53;0.20;99.90
38582;DHT22;24349;53.720;10.014;2023-03-01T00:31:25;0.20;99.90
38582;DHT22;24349;53.720;10.014;2023-03-01T00:33:56;0.30;99.90
38582;DHT22;24349;53.720;10.014;2023-03-01T00:36:23;0.20;99.90
38582;DHT22;24349;53.720;10.014;2023-03-01T00:38:49;0.30;99.90
38582;DHT22;24349;53.720;10.014;2023-03-01T00:41:16;0.30;99.90
38582;DHT22;24349;53.720;10.014;2023-03-01T00:43:43;0.20;99.90
38582;DHT22;24349;53.720;10.014;2023-03-01T00:46:11;0.10;99.90
38582;DHT22;24349;53.720;10.014;2023-03-01T00:48:38;0.10;99.90
38582;DHT22;24349;53.720;10.014;2023-03-01T00:51:25;0.10;99.90
38582;DHT22;24349;53.720;10.014;2023-03-01T00:53:53;0.20;99.90
38582;DHT22;24349;53.720;10.014;2023-03-01T00:56:19;0.20;99.90
38582;DHT22;24349;53.720;10.014;2023-03-01T00:58:45;0.20;99.90
38582;DHT22;24349;53.720;10.014;2023-03-01T01:01:13;0.10;99.90
38582;DHT22;24349;53.720;10.014;2023-03-01T01:03:58;0.10;99.90
38582;DHT22;24349;53.720;10.014;2023-03-01T01:06:26;0.10;99.90
38582;DHT22;24349;53.720;10.014;2023-03-01T01:08:53;0.20;99.90
38582;DHT22;24349;53.720;10.014;2023-03-01T01:11:20;0.10;99.90
38582;DHT22;24349;53.720;10.014;2023-03-01T01:13:47;0.20;99.90
38582;DHT22;24349;53.720;10.014;2023-03-01T01:16:13;0.20;99.90
38582;DHT22;24349;53.720;10.014;2023-03-01T01:18:39;0.10;99.90
38582;DHT22;24349;53.720;10.014;2023-03-01T01:21:14;0.10;99.90
38582;DHT22;24349;53.720;10.014;2023-03-01T01:23:41;0.10;1.00
38582;DHT22;24349;53.720;10.014;2023-03-01T01:26:13;0.10;1.00
38582;DHT22;24349;53.720;10.014;2023-03-01T01:28:39;0.10;1.00
38582;DHT22;24349;53.720;10.014;2023-03-01T01:31:05;0.10;1.00
38582;DHT22;24349;53.720;10.014;2023-03-01T01:33:31;0.20;1.00
38582;DHT22;24349;53.720;10.014;2023-03-01T01:35:57;0.10;1.00
38582;DHT22;24349;53.720;10.014;2023-03-01T01:38:23;0.10;1.00
38582;DHT22;24349;53.720;10.014;2023-03-01T01:40:49;0.10;1.00
38582;DHT22;24349;53.720;10.014;2023-03-01T01:43:39;0.10;1.00
38582;DHT22;24349;53.720;10.014;2023-03-01T01:46:28;0.10;1.00
38582;DHT22;24349;53.720;10.014;2023-03-01T01:48:59;0.10;99.90
38582;DHT22;24349;53.720;10.014;2023-03-01T01:51:29;0.10;99.90
38582;DHT22;24349;53.720;10.014;2023-03-01T01:54:20;0.10;99.90
38582;DHT22;24349;53.720;10.014;2023-03-01T01:56:54;0.10;99.90
38582;DHT22;24349;53.720;10.014;2023-03-01T01:59:20;0.00;99.90
38582;DHT22;24349;53.720;10.014;2023-03-01T02:01:50;0.10;99.90
38582;DHT22;24349;53.720;10.014;2023-03-01T02:04:17;0.10;99.90
38582;DHT22;24349;53.720;10.014;2023-03-01T02:06:51;0.10;99.90
38582;DHT22;24349;53.720;10.014;2023-03-01T02:09:20;0.10;99.90
38582;DHT22;24349;53.720;10.014;2023-03-01T02:11:47;0.00;99.90
38582;DHT22;24349;53.720;10.014;2023-03-01T02:14:14;-0.10;99.90
38582;DHT22;24349;53.720;10.014;2023-03-01T02:16:41;-0.20;99.90
38582;DHT22;24349;53.720;10.014;2023-03-01T02:19:12;-0.30;99.90
38582;DHT22;24349;53.720;10.014;2023-03-01T02:21:49;-0.30;99.90
38582;DHT22;24349;53.720;10.014;2023-03-01T02:26:46;-0.30;99.90
38582;DHT22;24349;53.720;10.014;2023-03-01T02:29:13;-0.40;1.00
38582;DHT22;24349;53.720;10.014;2023-03-01T02:31:39;-0.30;1.00
38582;DHT22;24349;53.720;10.014;2023-03-01T02:34:20;-0.30;1.00
38582;DHT22;24349;53.720;10.014;2023-03-01T02:37:00;-0.20;1.00
38582;DHT22;24349;53.720;10.014;2023-03-01T02:39:42;-0.20;1.00
38582;DHT22;24349;53.720;10.014;2023-03-01T02:42:12;-0.20;1.00
38582;DHT22;24349;53.720;10.014;2023-03-01T02:44:38;-0.20;1.00
38582;DHT22;24349;53.720;10.014;2023-03-01T02:47:04;-0.20;1.00
38582;DHT22;24349;53.720;10.014;2023-03-01T02:49:34;-0.20;1.00
38582;DHT22;24349;53.720;10.014;2023-03-01T02:57:19;-0.20;99.90
38582;DHT22;24349;53.720;10.014;2023-03-01T02:59:47;-0.40;99.90
38582;DHT22;24349;53.720;10.014;2023-03-01T03:02:23;-0.50;99.90
38582;DHT22;24349;53.720;10.014;2023-03-01T03:05:07;-0.60;1.00
38582;DHT22;24349;53.720;10.014;2023-03-01T03:07:35;-0.60;1.00
38582;DHT22;24349;53.720;10.014;2023-03-01T03:10:02;-0.70;1.00
38582;DHT22;24349;53.720;10.014;2023-03-01T03:12:29;-0.60;1.00
38582;DHT22;24349;53.720;10.014;2023-03-01T03:14:54;-0.50;1.00
38582;DHT22;24349;53.720;10.014;2023-03-01T03:17:20;-0.40;1.00
38582;DHT22;24349;53.720;10.014;2023-03-01T03:19:45;-0.30;1.00
38582;DHT22;24349;53.720;10.014;2023-03-01T03:22:12;-0.20;1.00
38582;DHT22;24349;53.720;10.014;2023-03-01T03:24:38;-0.10;1.00
38582;DHT22;24349;53.720;10.014;2023-03-01T03:27:05;0.00;1.00
38582;DHT22;24349;53.720;10.014;2023-03-01T03:29:30;0.00;1.00
38582;DHT22;24349;53.720;10.014;2023-03-01T03:31:56;0.00;1.00
38582;DHT22;24349;53.720;10.014;2023-03-01T03:34:22;0.10;1.00
38582;DHT22;24349;53.720;10.014;2023-03-01T03:36:47;0.10;1.00
38582;DHT22;24349;53.720;10.014;2023-03-01T03:39:13;0.20;1.00
38582;DHT22;24349;53.720;10.014;2023-03-01T03:41:38;0.20;1.00
38582;DHT22;24349;53.720;10.014;2023-03-01T03:44:04;0.20;1.00
38582;DHT22;24349;53.720;10.014;2023-03-01T03:46:30;0.20;99.90
38582;DHT22;24349;53.720;10.014;2023-03-01T03:48:55;0.30;1.00
38582;DHT22;24349;53.720;10.014;2023-03-01T03:51:21;0.20;99.90
38582;DHT22;24349;53.720;10.014;2023-03-01T03:53:48;0.20;99.90
38582;DHT22;24349;53.720;10.014;2023-03-01T03:56:14;0.10;99.90
38582;DHT22;24349;53.720;10.014;2023-03-01T03:58:40;0.10;1.00
38582;DHT22;24349;53.720;10.014;2023-03-01T04:01:06;0.10;1.00
38582;DHT22;24349;53.720;10.014;2023-03-01T04:03:32;0.10;1.00
38582;DHT22;24349;53.720;10.014;2023-03-01T04:06:00;0.10;99.90
38582;DHT22;24349;53.720;10.014;2023-03-01T04:08:27;0.00;99.90
38582;DHT22;24349;53.720;10.014;2023-03-01T04:10:57;0.00;1.00
38582;DHT22;24349;53.720;10.014;2023-03-01T04:13:24;0.10;1.00
38582;DHT22;24349;53.720;10.014;2023-03-01T04:15:51;0.00;1.00
38582;DHT22;24349;53.720;10.014;2023-03-01T04:18:18;0.10;1.00
38582;DHT22;24349;53.720;10.014;2023-03-01T04:20:45;0.20;1.00
38582;DHT22;24349;53.720;10.014;2023-03-01T04:23:13;0.20;1.00
38582;DHT22;24349;53.720;10.014;2023-03-01T04:25:48;0.30;1.00
38582;DHT22;24349;53.720;10.014;2023-03-01T04:28:23;0.40;1.00
38582;DHT22;24349;53.720;10.014;2023-03-01T04:30:50;0.50;1.00
38582;DHT22;24349;53.720;10.014;2023-03-01T04:33:16;0.40;1.00
38582;DHT22;24349;53.720;10.014;2023-03-01T04:35:42;0.40;1.00
38582;DHT22;24349;53.720;10.014;2023-03-01T04:38:08;0.50;1.00
38582;DHT22;24349;53.720;10.014;2023-03-01T04:40:34;0.50;1.00
38582;DHT22;24349;53.720;10.014;2023-03-01T04:43:00;0.50;1.00
38582;DHT22;24349;53.720;10.014;2023-03-01T04:45:26;0.70;1.00
38582;DHT22;24349;53.720;10.014;2023-03-01T04:47:53;0.70;1.00
38582;DHT22;24349;53.720;10.014;2023-03-01T04:50:19;0.70;1.00
38582;DHT22;24349;53.720;10.014;2023-03-01T04:52:46;0.70;99.90
38582;DHT22;24349;53.720;10.014;2023-03-01T04:55:12;0.80;99.90
38582;DHT22;24349;53.720;10.014;2023-03-01T04:57:38;0.80;99.90
38582;DHT22;24349;53.720;10.014;2023-03-01T05:00:07;0.80;99.90
38582;DHT22;24349;53.720;10.014;2023-03-01T05:02:51;0.80;99.90
38582;DHT22;24349;53.720;10.014;2023-03-01T05:05:35;0.80;99.90
38582;DHT22;24349;53.720;10.014;2023-03-01T05:08:04;0.80;99.90
38582;DHT22;24349;53.720;10.014;2023-03-01T05:10:31;0.90;1.00
38582;DHT22;24349;53.720;10.014;2023-03-01T05:12:58;1.00;1.00
38582;DHT22;24349;53.720;10.014;2023-03-01T05:15:25;1.00;1.00
38582;DHT22;24349;53.720;10.014;2023-03-01T05:17:52;1.10;1.00
38582;DHT22;24349;53.720;10.014;2023-03-01T05:20:19;1.20;1.00
38582;DHT22;24349;53.720;10.014;2023-03-01T05:22:48;1.20;1.00
38582;DHT22;24349;53.720;10.014;2023-03-01T05:25:14;1.30;1.00
38582;DHT22;24349;53.720;10.014;2023-03-01T05:27:39;1.40;99.90
38582;DHT22;24349;53.720;10.014;2023-03-01T05:30:06;1.40;99.90
38582;DHT22;24349;53.720;10.014;2023-03-01T05:32:50;1.40;99.90
38582;DHT22;24349;53.720;10.014;2023-03-01T05:35:20;1.30;99.90
38582;DHT22;24349;53.720;10.014;2023-03-01T05:37:48;1.30;99.90
38582;DHT22;24349;53.720;10.014;2023-03-01T05:40:19;1.30;99.90
38582;DHT22;24349;53.720;10.014;2023-03-01T05:42:47;1.20;99.90
38582;DHT22;24349;53.720;10.014;2023-03-01T05:45:13;1.20;99.90
38582;DHT22;24349;53.720;10.014;2023-03-01T05:47:40;1.20;99.90
38582;DHT22;24349;53.720;10.014;2023-03-01T05:50:21;1.20;99.90
38582;DHT22;24349;53.720;10.014;2023-03-01T05:52:51;1.10;99.90
38582;DHT22;24349;53.720;10.014;2023-03-01T05:55:19;1.10;99.90
38582;DHT22;24349;53.720;10.014;2023-03-01T05:57:45;1.00;99.90
38582;DHT22;24349;53.720;10.014;2023-03-01T06:00:13;0.90;99.90
38582;DHT22;24349;53.720;10.014;2023-03-01T06:02:39;0.90;99.90
38582;DHT22;24349;53.720;10.014;2023-03-01T06:05:07;0.90;1.00
38582;DHT22;24349;53.720;10.014;2023-03-01T06:07:33;0.90;1.00
38582;DHT22;24349;53.720;10.014;2023-03-01T06:09:59;0.80;99.90
38582;DHT22;24349;53.720;10.014;2023-03-01T06:12:24;0.80;1.00
38582;DHT22;24349;53.720;10.014;2023-03-01T06:14:50;0.70;1.00
38582;DHT22;24349;53.720;10.014;2023-03-01T06:17:15;0.70;1.00
38582;DHT22;24349;53.720;10.014;2023-03-01T06:19:41;0.80;1.00
38582;DHT22;24349;53.720;10.014;2023-03-01T06:22:07;0.70;1.00
38582;DHT22;24349;53.720;10.014;2023-03-01T06:24:33;0.60;1.00
38582;DHT22;24349;53.720;10.014;2023-03-01T06:26:59;0.60;1.00
38582;DHT22;24349;53.720;10.014;2023-03-01T06:29:24;0.60;1.00
38582;DHT22;24349;53.720;10.014;2023-03-01T06:31:50;0.70;1.00
38582;DHT22;24349;53.720;10.014;2023-03-01T06:34:15;0.80;1.00
38582;DHT22;24349;53.720;10.014;2023-03-01T06:36:41;0.90;1.00
38582;DHT22;24349;53.720;10.014;2023-03-01T06:39:07;1.00;1.00
38582;DHT22;24349;53.720;10.014;2023-03-01T06:41:33;1.00;1.00
38582;DHT22;24349;53.720;10.014;2023-03-01T06:43:59;1.10;1.00
38582;DHT22;24349;53.720;10.014;2023-03-01T06:46:25;1.00;1.00
38582;DHT22;24349;53.720;10.014;2023-03-01T06:48:50;1.00;1.00
38582;DHT22;24349;53.720;10.014;2023-03-01T06:51:16;1.00;1.00
38582;DHT22;24349;53.720;10.014;2023-03-01T06:53:42;1.10;1.00
38582;DHT22;24349;53.720;10.014;2023-03-01T06:56:07;1.10;1.00
38582;DHT22;24349;53.720;10.014;2023-03-01T06:58:33;1.20;1.00
38582;DHT22;24349;53.720;10.014;2023-03-01T07:00:59;1.20;1.00
38582;DHT22;24349;53.720;10.014;2023-03-01T07:03:24;1.30;1.00
38582;DHT22;24349;53.720;10.014;2023-03-01T07:05:50;1.20;1.00
38582;DHT22;24349;53.720;10.014;2023-03-01T07:08:19;1.30;1.00
38582;DHT22;24349;53.720;10.014;2023-03-01T07:10:45;1.50;1.00
38582;DHT22;24349;53.720;10.014;2023-03-01T07:13:10;1.60;1.00
38582;DHT22;24349;53.720;10.014;2023-03-01T07:15:36;1.80;1.00
38582;DHT22;24349;53.720;10.014;2023-03-01T07:18:02;1.80;1.00
38582;DHT22;24349;53.720;10.014;2023-03-01T07:20:27;1.90;1.00
38582;DHT22;24349;53.720;10.014;2023-03-01T07:22:55;2.00;1.00
38582;DHT22;24349;53.720;10.014;2023-03-01T07:25:24;2.20;1.00
38582;DHT22;24349;53.720;10.014;2023-03-01T07:27:51;2.30;1.00
38582;DHT22;24349;53.720;10.014;2023-03-01T07:30:16;2.40;1.00
38582;DHT22;24349;53.720;10.014;2023-03-01T07:32:42;2.40;1.00
38582;DHT22;24349;53.720;10.014;2023-03-01T07:35:08;2.50;1.00
38582;DHT22;24349;53.720;10.014;2023-03-01T07:37:34;2.60;1.00
38582;DHT22;24349;53.720;10.014;2023-03-01T07:39:59;2.60;1.00
38582;DHT22;24349;53.720;10.014;2023-03-01T07:42:25;2.70;1.00
38582;DHT22;24349;53.720;10.014;2023-03-01T07:44:50;2.90;1.00
38582;DHT22;24349;53.720;10.014;2023-03-01T07:47:16;3.00;1.00
38582;DHT22;24349;53.720;10.014;2023-03-01T07:49:42;3.00;1.00
38582;DHT22;24349;53.720;10.014;2023-03-01T07:52:12;3.10;1.00
38582;DHT22;24349;53.720;10.014;2023-03-01T07:54:38;3.10;99.90
38582;DHT22;24349;53.720;10.014;2023-03-01T07:57:04;3.40;99.90
38582;DHT22;24349;53.720;10.014;2023-03-01T07:59:29;3.80;99.90
38582;DHT22;24349;53.720;10.014;2023-03-01T08:01:56;4.50;99.90
38582;DHT22;24349;53.720;10.014;2023-03-01T08:04:22;5.40;1.00
38582;DHT22;24349;53.720;10.014;2023-03-01T08:06:50;6.30;99.90
38582;DHT22;24349;53.720;10.014;2023-03-01T08:09:16;6.90;1.00
38582;DHT22;24349;53.720;10.014;2023-03-01T08:11:42;7.40;62.70
38582;DHT22;24349;53.720;10.014;2023-03-01T08:14:07;8.00;99.90
38582;DHT22;24349;53.720;10.014;2023-03-01T08:16:33;8.80;99.90
38582;DHT22;24349;53.720;10.014;2023-03-01T08:19:05;8.90;99.90
38582;DHT22;24349;53.720;10.014;2023-03-01T08:21:30;8.60;99.90
38582;DHT22;24349;53.720;10.014;2023-03-01T08:23:56;8.60;99.90
38582;DHT22;24349;53.720;10.014;2023-03-01T08:26:22;9.10;99.90
38582;DHT22;24349;53.720;10.014;2023-03-01T08:28:49;9.50;99.90
38582;DHT22;24349;53.720;10.014;2023-03-01T08:31:19;9.80;99.90
38582;DHT22;24349;53.720;10.014;2023-03-01T08:33:45;10.20;99.90
38582;DHT22;24349;53.720;10.014;2023-03-01T08:36:16;10.50;99.90
38582;DHT22;24349;53.720;10.014;2023-03-01T08:38:42;10.70;99.90
38582;DHT22;24349;53.720;10.014;2023-03-01T08:41:08;11.40;99.90
38582;DHT22;24349;53.720;10.014;2023-03-01T08:43:33;12.20;99.90
38582;DHT22;24349;53.720;10.014;2023-03-01T08:45:59;12.20;99.90
38582;DHT22;24349;53.720;10.014;2023-03-01T08:48:27;11.70;99.90
38582;DHT22;24349;53.720;10.014;2023-03-01T08:50:52;12.50;99.90
38582;DHT22;24349;53.720;10.014;2023-03-01T08:53:18;13.60;99.90
38582;DHT22;24349;53.720;10.014;2023-03-01T08:55:43;14.00;99.90
38582;DHT22;24349;53.720;10.014;2023-03-01T08:58:09;13.70;99.90
38582;DHT22;24349;53.720;10.014;2023-03-01T09:00:35;13.30;99.90
38582;DHT22;24349;53.720;10.014;2023-03-01T09:03:01;12.90;99.90
38582;DHT22;24349;53.720;10.014;2023-03-01T09:05:26;13.10;99.90
38582;DHT22;24349;53.720;10.014;2023-03-01T09:07:52;13.00;99.90
38582;DHT22;24349;53.720;10.014;2023-03-01T09:10:17;12.70;99.90
38582;DHT22;24349;53.720;10.014;2023-03-01T09:12:43;12.00;99.90
38582;DHT22;24349;53.720;10.014;2023-03-01T09:15:10;11.70;99.90
38582;DHT22;24349;53.720;10.014;2023-03-01T09:17:35;11.60;99.90
38582;DHT22;24349;53.720;10.014;2023-03-01T09:20:01;11.10;99.90
38582;DHT22;24349;53.720;10.014;2023-03-01T09:22:26;10.00;99.90
38582;DHT22;24349;53.720;10.014;2023-03-01T09:24:52;10.20;99.90
38582;DHT22;24349;53.720;10.014;2023-03-01T09:27:17;9.40;99.90
38582;DHT22;24349;53.720;10.014;2023-03-01T09:29:45;9.30;99.90
38582;DHT22;24349;53.720;10.014;2023-03-01T09:32:10;9.20;99.90
38582;DHT22;24349;53.720;10.014;2023-03-01T09:34:36;9.20;99.90
38582;DHT22;24349;53.720;10.014;2023-03-01T09:37:24;9.30;99.90
38582;DHT22;24349;53.720;10.014;2023-03-01T09:39:50;9.40;99.90
38582;DHT22;24349;53.720;10.014;2023-03-01T09:42:15;10.40;99.90
38582;DHT22;24349;53.720;10.014;2023-03-01T09:47:25;12.40;99.90
38582;DHT22;24349;53.720;10.014;2023-03-01T09:50:13;12.20;99.90
38582;DHT22;24349;53.720;10.014;2023-03-01T09:53:07;12.00;99.90
38582;DHT22;24349;53.720;10.014;2023-03-01T09:55:41;12.10;99.90
38582;DHT22;24349;53.720;10.014;2023-03-01T10:01:29;12.20;99.90
38582;DHT22;24349;53.720;10.014;2023-03-01T10:06:52;11.50;99.90
38582;DHT22;24349;53.720;10.014;2023-03-01T10:09:20;11.40;99.90
38582;DHT22;24349;53.720;10.014;2023-03-01T10:11:52;11.80;99.90
38582;DHT22;24349;53.720;10.014;2023-03-01T10:14:30;12.00;99.90
38582;DHT22;24349;53.720;10.014;2023-03-01T10:17:03;12.00;99.90
38582;DHT22;24349;53.720;10.014;2023-03-01T10:19:37;11.90;99.90
38582;DHT22;24349;53.720;10.014;2023-03-01T10:22:22;12.60;99.90
38582;DHT22;24349;53.720;10.014;2023-03-01T10:24:53;12.20;99.90
38582;DHT22;24349;53.720;10.014;2023-03-01T10:27:24;13.20;99.90
38582;DHT22;24349;53.720;10.014;2023-03-01T10:32:32;13.70;99.90
38582;DHT22;24349;53.720;10.014;2023-03-01T10:34:57;13.40;99.90
38582;DHT22;24349;53.720;10.014;2023-03-01T10:37:24;12.30;99.90
38582;DHT22;24349;53.720;10.014;2023-03-01T10:40:07;12.20;99.90
38582;DHT22;24349;53.720;10.014;2023-03-01T10:42:46;12.50;99.90
38582;DHT22;24349;53.720;10.014;2023-03-01T10:47:44;12.80;99.90
38582;DHT22;24349;53.720;10.014;2023-03-01T10:50:21;12.50;99.90
38582;DHT22;24349;53.720;10.014;2023-03-01T10:53:02;12.60;99.90
38582;DHT22;24349;53.720;10.014;2023-03-01T10:55:35;12.50;99.90
38582;DHT22;24349;53.720;10.014;2023-03-01T10:58:22;12.60;99.90
38582;DHT22;24349;53.720;10.014;2023-03-01T11:00:51;13.40;99.90
38582;DHT22;24349;53.720;10.014;2023-03-01T11:11:29;15.00;99.90
38582;DHT22;24349;53.720;10.014;2023-03-01T11:16:42;15.70;99.90
38582;DHT22;24349;53.720;10.014;2023-03-01T11:21:42;16.20;99.90
38582;DHT22;24349;53.720;10.014;2023-03-01T11:24:11;15.10;99.90
38582;DHT22;24349;53.720;10.014;2023-03-01T11:26:42;15.60;99.90
38582;DHT22;24349;53.720;10.014;2023-03-01T11:29:26;16.30;99.90
38582;DHT22;24349;53.720;10.014;2023-03-01T11:31:52;16.70;99.90
38582;DHT22;24349;53.720;10.014;2023-03-01T11:34:42;15.50;99.90
38582;DHT22;24349;53.720;10.014;2023-03-01T11:37:26;14.90;99.90
38582;DHT22;24349;53.720;10.014;2023-03-01T11:40:01;15.70;99.90
38582;DHT22;24349;53.720;10.014;2023-03-01T11:42:46;15.60;99.90
38582;DHT22;24349;53.720;10.014;2023-03-01T11:45:13;16.20;99.90
38582;DHT22;24349;53.720;10.014;2023-03-01T11:53:51;16.30;99.90
38582;DHT22;24349;53.720;10.014;2023-03-01T12:33:00;14.50;99.90
38582;DHT22;24349;53.720;10.014;2023-03-01T12:41:36;13.60;99.90
38582;DHT22;24349;53.720;10.014;2023-03-01T12:44:23;14.20;99.90
38582;DHT22;24349;53.720;10.014;2023-03-01T12:49:44;14.60;99.90
38582;DHT22;24349;53.720;10.014;2023-03-01T12:54:42;13.80;99.90
38582;DHT22;24349;53.720;10.014;2023-03-01T12:57:34;13.90;99.90
38582;DHT22;24349;53.720;10.014;2023-03-01T13:00:35;13.90;99.90
38582;DHT22;24349;53.720;10.014;2023-03-01T13:08:59;14.40;99.90
38582;DHT22;24349;53.720;10.014;2023-03-01T13:11:30;14.10;99.90
38582;DHT22;24349;53.720;10.014;2023-03-01T13:16:49;13.20;99.90
38582;DHT22;24349;53.720;10.014;2023-03-01T13:19:20;13.00;99.90
38582;DHT22;24349;53.720;10.014;2023-03-01T13:21:48;13.20;99.90
38582;DHT22;24349;53.720;10.014;2023-03-01T13:24:34;12.80;99.90
38582;DHT22;24349;53.720;10.014;2023-03-01T13:29:54;13.10;99.90
38582;DHT22;24349;53.720;10.014;2023-03-01T13:32:30;13.00;99.90
38582;DHT22;24349;53.720;10.014;2023-03-01T13:37:44;12.90;99.90
38582;DHT22;24349;53.720;10.014;2023-03-01T13:42:48;13.00;99.90
38582;DHT22;24349;53.720;10.014;2023-03-01T13:45:36;13.00;99.90
38582;DHT22;24349;53.720;10.014;2023-03-01T13:48:23;13.10;99.90
38582;DHT22;24349;53.720;10.014;2023-03-01T13:50:54;13.40;99.90
38582;DHT22;24349;53.720;10.014;2023-03-01T13:53:25;13.50;99.90
38582;DHT22;24349;53.720;10.014;2023-03-01T13:55:56;12.80;99.90
38582;DHT22;24349;53.720;10.014;2023-03-01T14:01:01;12.80;99.90
38582;DHT22;24349;53.720;10.014;2023-03-01T14:03:29;12.80;99.90
38582;DHT22;24349;53.720;10.014;2023-03-01T14:06:08;12.60;99.90
38582;DHT22;24349;53.720;10.014;2023-03-01T14:08:35;12.60;99.90
38582;DHT22;24349;53.720;10.014;2023-03-01T14:11:28;12.70;99.90
38582;DHT22;24349;53.720;10.014;2023-03-01T14:16:46;13.40;99.90
38582;DHT22;24349;53.720;10.014;2023-03-01T14:19:17;13.20;99.90
38582;DHT22;24349;53.720;10.014;2023-03-01T14:21:44;12.80;99.90
38582;DHT22;24349;53.720;10.014;2023-03-01T14:24:23;12.90;99.90
38582;DHT22;24349;53.720;10.014;2023-03-01T14:26:51;13.00;99.90
38582;DHT22;24349;53.720;10.014;2023-03-01T14:29:35;12.80;99.90
38582;DHT22;24349;53.720;10.014;2023-03-01T14:32:21;12.70;99.90
38582;DHT22;24349;53.720;10.014;2023-03-01T14:34:50;12.10;99.90
38582;DHT22;24349;53.720;10.014;2023-03-01T14:37:26;12.10;99.90
38582;DHT22;24349;53.720;10.014;2023-03-01T14:39:52;12.20;99.90
38582;DHT22;24349;53.720;10.014;2023-03-01T14:42:20;12.00;99.90
38582;DHT22;24349;53.720;10.014;2023-03-01T14:44:48;11.90;99.90
38582;DHT22;24349;53.720;10.014;2023-03-01T14:47:25;11.70;99.90
38582;DHT22;24349;53.720;10.014;2023-03-01T14:49:58;11.70;99.90
38582;DHT22;24349;53.720;10.014;2023-03-01T14:52:38;11.50;99.90
38582;DHT22;24349;53.720;10.014;2023-03-01T14:55:41;11.20;99.90
38582;DHT22;24349;53.720;10.014;2023-03-01T14:58:15;11.10;99.90
38582;DHT22;24349;53.720;10.014;2023-03-01T15:00:55;10.90;99.90
38582;DHT22;24349;53.720;10.014;2023-03-01T15:03:30;10.70;99.90
38582;DHT22;24349;53.720;10.014;2023-03-01T15:05:57;10.80;99.90
38582;DHT22;24349;53.720;10.014;2023-03-01T15:08:24;10.90;99.90
38582;DHT22;24349;53.720;10.014;2023-03-01T15:11:15;10.70;99.90
38582;DHT22;24349;53.720;10.014;2023-03-01T15:13:42;10.50;99.90
38582;DHT22;24349;53.720;10.014;2023-03-01T15:16:12;10.60;99.90
38582;DHT22;24349;53.720;10.014;2023-03-01T15:18:47;10.30;99.90
38582;DHT22;24349;53.720;10.014;2023-03-01T15:21:25;10.40;99.90
38582;DHT22;24349;53.720;10.014;2023-03-01T15:23:56;10.60;99.90
38582;DHT22;24349;53.720;10.014;2023-03-01T15:26:32;10.70;99.90
38582;DHT22;24349;53.720;10.014;2023-03-01T15:29:00;10.70;99.90
38582;DHT22;24349;53.720;10.014;2023-03-01T15:31:29;10.90;99.90
38582;DHT22;24349;53.720;10.014;2023-03-01T15:34:21;10.80;99.90
38582;DHT22;24349;53.720;10.014;2023-03-01T15:36:49;10.90;99.90
38582;DHT22;24349;53.720;10.014;2023-03-01T15:42:35;10.50;99.90
38582;DHT22;24349;53.720;10.014;2023-03-01T15:45:11;10.50;99.90
38582;DHT22;24349;53.720;10.014;2023-03-01T15:48:01;10.50;99.90
38582;DHT22;24349;53.720;10.014;2023-03-01T15:50:33;10.00;99.90
38582;DHT22;24349;53.720;10.014;2023-03-01T15:53:00;9.90;99.90
38582;DHT22;24349;53.720;10.014;2023-03-01T15:55:28;10.00;99.90
38582;DHT22;24349;53.720;10.014;2023-03-01T15:58:18;9.90;99.90
38582;DHT22;24349;53.720;10.014;2023-03-01T16:00:45;9.70;99.90
38582;DHT22;24349;53.720;10.014;2023-03-01T16:03:11;9.30;99.90
38582;DHT22;24349;53.720;10.014;2023-03-01T16:05:37;9.00;99.90
38582;DHT22;24349;53.720;10.014;2023-03-01T16:08:04;8.70;99.90
38582;DHT22;24349;53.720;10.014;2023-03-01T16:10:32;8.40;99.90
38582;DHT22;24349;53.720;10.014;2023-03-01T16:12:57;8.20;99.90
38582;DHT22;24349;53.720;10.014;2023-03-01T16:15:29;8.20;99.90
38582;DHT22;24349;53.720;10.014;2023-03-01T16:17:55;8.00;1.00
38582;DHT22;24349;53.720;10.014;2023-03-01T16:20:24;7.80;99.90
38582;DHT22;24349;53.720;10.014;2023-03-01T16:22:50;7.70;99.90
38582;DHT22;24349;53.720;10.014;2023-03-01T16:25:18;7.60;99.90
38582;DHT22;24349;53.720;10.014;2023-03-01T16:27:45;7.60;99.90
38582;DHT22;24349;53.720;10.014;2023-03-01T16:30:13;7.60;99.90
38582;DHT22;24349;53.720;10.014;2023-03-01T16:32:40;7.40;94.50
38582;DHT22;24349;53.720;10.014;2023-03-01T16:35:07;7.30;99.90
38582;DHT22;24349;53.720;10.014;2023-03-01T16:37:35;7.10;1.00
38582;DHT22;24349;53.720;10.014;2023-03-01T16:40:02;6.90;99.90
38582;DHT22;24349;53.720;10.014;2023-03-01T16:42:36;6.90;99.90
38582;DHT22;24349;53.720;10.014;2023-03-01T16:45:02;6.80;1.00
38582;DHT22;24349;53.720;10.014;2023-03-01T16:47:28;6.80;1.00
38582;DHT22;24349;53.720;10.014;2023-03-01T16:49:54;6.60;99.90
38582;DHT22;24349;53.720;10.014;2023-03-01T16:52:20;6.50;19.90
38582;DHT22;24349;53.720;10.014;2023-03-01T16:54:46;6.40;99.90
38582;DHT22;24349;53.720;10.014;2023-03-01T16:57:12;6.30;1.00
38582;DHT22;24349;53.720;10.014;2023-03-01T16:59:38;6.30;8.50
38582;DHT22;24349;53.720;10.014;2023-03-01T17:02:12;6.20;99.90
38582;DHT22;24349;53.720;10.014;2023-03-01T17:04:38;6.20;56.10
38582;DHT22;24349;53.720;10.014;2023-03-01T17:07:04;6.10;99.90
38582;DHT22;24349;53.720;10.014;2023-03-01T17:09:35;6.00;99.90
38582;DHT22;24349;53.720;10.014;2023-03-01T17:12:02;5.90;99.90
38582;DHT22;24349;53.720;10.014;2023-03-01T17:14:28;5.80;1.00
38582;DHT22;24349;53.720;10.014;2023-03-01T17:16:54;5.80;1.00
38582;DHT22;24349;53.720;10.014;2023-03-01T17:19:20;5.70;1.00
38582;DHT22;24349;53.720;10.014;2023-03-01T17:21:46;5.60;1.00
38582;DHT22;24349;53.720;10.014;2023-03-01T17:24:11;5.40;1.00
38582;DHT22;24349;53.720;10.014;2023-03-01T17:26:37;5.30;2.40
38582;DHT22;24349;53.720;10.014;2023-03-01T17:29:04;5.30;27.70
38582;DHT22;24349;53.720;10.014;2023-03-01T17:31:30;4.90;92.40
38582;DHT22;24349;53.720;10.014;2023-03-01T17:33:56;4.80;99.90
38582;DHT22;24349;53.720;10.014;2023-03-01T17:36:22;4.70;99.90
38582;DHT22;24349;53.720;10.014;2023-03-01T17:38:48;4.50;99.90
38582;DHT22;24349;53.720;10.014;2023-03-01T17:41:14;4.30;99.90